createdAt,value
2023-03-27T00:01:52.827Z,80.04
2023-03-27T00:04:21.496Z,79.96
2023-03-27T00:06:49.979Z,79.74
2023-03-27T00:09:19.177Z,79.38
2023-03-27T00:11:47.912Z,79.83
2023-03-27T00:14:16.480Z,81.62
2023-03-27T00:16:46.427Z,83.13
2023-03-27T00:19:16.044Z,82.51
2023-03-27T00:21:45.086Z,81.76
2023-03-27T00:24:14.123Z,81.21
2023-03-27T00:26:43.163Z,81.18
2023-03-27T00:29:13.450Z,81.15
2023-03-27T00:31:41.565Z,81.32
2023-03-27T00:34:09.621Z,81.30
2023-03-27T00:36:39.089Z,80.63
2023-03-27T00:39:07.198Z,80.65
2023-03-27T00:41:35.248Z,80.58
2023-03-27T00:44:04.184Z,80.02
2023-03-27T00:46:41.652Z,80.29
2023-03-27T00:49:13.124Z,80.04
2023-03-27T00:51:46.798Z,79.55
2023-03-27T00:54:17.511Z,79.68
2023-03-27T00:56:46.840Z,79.79
2023-03-27T00:59:19.068Z,79.70
2023-03-27T01:01:48.131Z,79.34
2023-03-27T01:04:21.543Z,79.45
2023-03-27T01:06:54.870Z,79.36
2023-03-27T01:09:23.236Z,79.33
2023-03-27T01:12:08.206Z,79.52
2023-03-27T01:14:49.318Z,79.16
2023-03-27T01:17:30.687Z,79.25
2023-03-27T01:20:42.952Z,79.35
2023-03-27T01:23:59.843Z,79.27
2023-03-27T01:26:58.438Z,78.84
2023-03-27T01:29:48.413Z,78.69
2023-03-27T01:32:45.415Z,79.12
2023-03-27T01:35:33.320Z,79.29
2023-03-27T01:38:23.944Z,79.26
2023-03-27T01:41:01.374Z,79.26
2023-03-27T01:43:36.535Z,79.25
2023-03-27T01:46:09.197Z,79.52
2023-03-27T01:48:44.933Z,79.37
2023-03-27T01:51:18.281Z,79.76
2023-03-27T01:53:52.206Z,79.46
2023-03-27T01:56:26.907Z,79.78
2023-03-27T01:59:04.135Z,80.04
2023-03-27T02:01:37.559Z,79.46
2023-03-27T02:04:10.378Z,79.51
2023-03-27T02:06:41.930Z,79.23
2023-03-27T02:09:17.494Z,79.12
2023-03-27T02:11:54.289Z,79.16
2023-03-27T02:14:27.694Z,79.07
2023-03-27T02:17:00.140Z,79.27
2023-03-27T02:19:34.781Z,79.33
2023-03-27T02:22:03.587Z,78.96
2023-03-27T02:24:43.505Z,79.16
2023-03-27T02:27:18.339Z,79.05
2023-03-27T02:29:57.540Z,78.87
2023-03-27T02:32:41.347Z,78.88
2023-03-27T02:35:28.196Z,78.69
2023-03-27T02:38:05.466Z,78.97
2023-03-27T02:40:59.812Z,78.92
2023-03-27T02:44:00.539Z,79.50
2023-03-27T02:46:54.533Z,79.43
2023-03-27T02:49:28.630Z,79.25
2023-03-27T02:52:01.814Z,79.14
2023-03-27T02:54:33.580Z,79.08
2023-03-27T02:57:09.504Z,78.90
2023-03-27T03:00:18.452Z,78.76
2023-03-27T03:02:53.641Z,78.71
2023-03-27T03:05:24.377Z,78.65
2023-03-27T03:07:54.390Z,78.92
2023-03-27T03:10:27.723Z,78.92
2023-03-27T03:12:55.800Z,78.82
2023-03-27T03:15:25.274Z,79.13
2023-03-27T03:17:53.635Z,79.57
2023-03-27T03:20:21.724Z,79.08
2023-03-27T03:22:49.851Z,79.02
2023-03-27T03:25:19.947Z,79.63
2023-03-27T03:27:48.186Z,80.04
2023-03-27T03:30:16.902Z,80.24
2023-03-27T03:33:01.994Z,80.03
2023-03-27T03:35:30.534Z,80.17
2023-03-27T03:38:01.028Z,80.17
2023-03-27T03:40:34.722Z,80.70
2023-03-27T03:43:02.752Z,80.50
2023-03-27T03:45:31.597Z,80.82
2023-03-27T03:48:02.618Z,81.02
2023-03-27T03:50:31.102Z,81.27
2023-03-27T03:52:59.476Z,81.07
2023-03-27T03:55:27.577Z,80.73
2023-03-27T03:57:55.743Z,80.61
2023-03-27T04:00:28.175Z,80.66
2023-03-27T04:02:58.472Z,80.20
2023-03-27T04:05:28.165Z,80.55
2023-03-27T04:08:00.220Z,80.37
2023-03-27T04:10:34.888Z,80.88
2023-03-27T04:13:07.137Z,80.42
2023-03-27T04:15:39.299Z,80.47
2023-03-27T04:18:33.071Z,80.43
2023-03-27T04:21:06.358Z,80.67
2023-03-27T04:23:34.568Z,80.42
2023-03-27T04:26:04.034Z,80.60
2023-03-27T04:28:55.441Z,80.49
2023-03-27T04:31:46.733Z,80.55
2023-03-27T04:34:39.303Z,80.40
2023-03-27T04:37:27.860Z,80.47
2023-03-27T04:40:25.954Z,80.37
2023-03-27T04:42:56.014Z,80.19
2023-03-27T04:45:25.778Z,80.71
2023-03-27T04:47:54.877Z,80.94
2023-03-27T04:50:23.613Z,80.97
2023-03-27T04:52:58.698Z,80.32
2023-03-27T04:55:28.177Z,80.67
2023-03-27T04:57:56.696Z,80.18
2023-03-27T05:00:24.865Z,80.41
2023-03-27T05:03:15.428Z,80.48
2023-03-27T05:05:59.471Z,80.22
2023-03-27T05:08:28.932Z,80.98
2023-03-27T05:10:57.554Z,80.75
2023-03-27T05:13:26.341Z,80.76
2023-03-27T05:15:54.589Z,80.85
2023-03-27T05:18:24.993Z,80.53
2023-03-27T05:20:53.347Z,80.87
2023-03-27T05:23:21.410Z,80.80
2023-03-27T05:25:59.819Z,82.51
2023-03-27T05:28:37.230Z,82.29
2023-03-27T05:31:05.724Z,83.72
2023-03-27T05:33:42.290Z,83.47
2023-03-27T05:36:11.550Z,85.51
2023-03-27T05:38:44.428Z,85.07
2023-03-27T05:41:32.542Z,83.57
2023-03-27T05:44:03.714Z,83.11
2023-03-27T05:46:36.466Z,82.52
2023-03-27T05:49:11.466Z,82.33
2023-03-27T05:51:47.285Z,82.13
2023-03-27T05:54:20.829Z,83.14
2023-03-27T05:56:58.201Z,81.96
2023-03-27T05:59:26.934Z,83.39
2023-03-27T06:02:00.642Z,83.60
2023-03-27T06:04:42.416Z,84.27
2023-03-27T06:07:15.106Z,83.24
2023-03-27T06:09:45.237Z,82.49
2023-03-27T06:12:33.490Z,82.16
2023-03-27T06:15:11.924Z,81.30
2023-03-27T06:17:52.431Z,80.70
2023-03-27T06:20:22.801Z,80.62
2023-03-27T06:22:56.510Z,80.77
2023-03-27T06:25:34.538Z,80.62
2023-03-27T06:28:07.154Z,80.70
2023-03-27T06:30:42.273Z,80.12
2023-03-27T06:33:29.823Z,79.53
2023-03-27T06:36:01.318Z,79.52
2023-03-27T06:38:33.033Z,79.79
2023-03-27T06:41:02.859Z,80.08
2023-03-27T06:43:52.635Z,79.79
2023-03-27T06:46:42.833Z,79.83
2023-03-27T06:49:39.230Z,79.91
2023-03-27T06:52:15.387Z,82.65
2023-03-27T06:54:44.852Z,83.11
2023-03-27T06:57:13.747Z,84.84
2023-03-27T06:59:51.569Z,85.90
2023-03-27T07:02:24.252Z,84.14
2023-03-27T07:05:13.036Z,82.78
2023-03-27T07:07:43.996Z,82.58
2023-03-27T07:10:13.308Z,83.00
2023-03-27T07:12:45.557Z,82.58
2023-03-27T07:15:18.840Z,81.96
2023-03-27T07:17:54.145Z,81.46
2023-03-27T07:20:22.784Z,82.21
2023-03-27T07:22:51.285Z,86.16
2023-03-27T07:25:41.169Z,84.87
2023-03-27T07:28:16.870Z,84.70
2023-03-27T07:30:46.706Z,83.65
2023-03-27T07:33:15.112Z,81.91
2023-03-27T07:35:44.188Z,82.46
2023-03-27T07:38:41.466Z,82.49
2023-03-27T07:41:21.115Z,81.21
2023-03-27T07:44:01.729Z,80.50
2023-03-27T07:46:42.369Z,80.35
2023-03-27T07:49:11.252Z,83.59
2023-03-27T07:51:40.033Z,85.46
2023-03-27T07:54:11.842Z,83.17
2023-03-27T07:56:40.935Z,83.39
2023-03-27T07:59:32.356Z,83.80
2023-03-27T08:02:17.444Z,83.52
2023-03-27T08:04:46.306Z,82.25
2023-03-27T08:07:15.459Z,85.77
2023-03-27T08:09:44.493Z,87.22
2023-03-27T08:12:12.659Z,87.97
2023-03-27T08:14:45.744Z,87.72
2023-03-27T08:17:28.648Z,94.13
2023-03-27T08:19:57.264Z,97.06
2023-03-27T08:22:26.598Z,96.23
2023-03-27T08:25:13.577Z,98.09
2023-03-27T08:27:42.358Z,96.32
2023-03-27T08:30:13.503Z,99.19
2023-03-27T08:32:44.088Z,98.99
2023-03-27T08:35:12.557Z,99.93
2023-03-27T08:37:42.394Z,100.00
2023-03-27T08:40:37.872Z,99.97
2023-03-27T08:43:26.353Z,99.77
2023-03-27T08:46:00.881Z,97.14
2023-03-27T08:48:35.056Z,95.54
2023-03-27T08:51:06.979Z,97.66
2023-03-27T08:53:42.838Z,98.77
2023-03-27T08:56:15.386Z,98.82
2023-03-27T08:58:46.859Z,99.17
2023-03-27T09:01:31.231Z,98.94
2023-03-27T09:04:15.198Z,98.96
2023-03-27T09:06:55.942Z,98.93
2023-03-27T09:09:40.277Z,98.41
2023-03-27T09:12:25.981Z,98.84
2023-03-27T09:14:57.403Z,98.58
2023-03-27T09:17:32.492Z,98.65
2023-03-27T09:20:18.355Z,98.20
2023-03-27T09:22:52.941Z,98.79
2023-03-27T09:25:35.709Z,98.67
2023-03-27T09:28:37.142Z,97.39
2023-03-27T09:31:21.775Z,95.68
2023-03-27T09:33:50.371Z,93.18
2023-03-27T09:36:20.041Z,92.26
2023-03-27T09:38:51.824Z,93.86
2023-03-27T09:41:27.030Z,93.96
2023-03-27T09:44:02.923Z,94.24
2023-03-27T09:46:34.219Z,96.97
2023-03-27T09:49:06.745Z,95.78
2023-03-27T09:51:44.752Z,93.53
2023-03-27T09:54:22.319Z,93.35
2023-03-27T09:56:53.488Z,94.40
2023-03-27T09:59:28.630Z,93.54
2023-03-27T10:02:18.362Z,94.25
2023-03-27T10:04:59.395Z,94.55
2023-03-27T10:07:33.949Z,92.45
2023-03-27T10:10:21.229Z,94.41
2023-03-27T10:13:14.164Z,94.15
2023-03-27T10:15:49.881Z,94.68
2023-03-27T10:18:36.257Z,94.71
2023-03-27T10:21:17.805Z,96.10
2023-03-27T10:23:49.766Z,97.35
2023-03-27T10:26:49.483Z,97.87
2023-03-27T10:29:27.028Z,95.31
2023-03-27T10:31:57.289Z,94.39
2023-03-27T10:34:51.615Z,94.79
2023-03-27T10:37:50.124Z,95.63
2023-03-27T10:40:22.658Z,96.16
2023-03-27T10:42:57.896Z,97.14
2023-03-27T10:45:26.728Z,96.63
2023-03-27T10:48:02.725Z,96.63
2023-03-27T10:50:42.997Z,95.86
2023-03-27T10:53:18.328Z,95.27
2023-03-27T10:56:09.021Z,95.86
2023-03-27T10:58:48.761Z,98.23
2023-03-27T11:01:26.433Z,98.12
2023-03-27T11:04:00.694Z,100.00
2023-03-27T11:06:34.448Z,99.74
2023-03-27T11:09:10.145Z,99.23
2023-03-27T11:11:52.573Z,100.00
2023-03-27T11:14:25.597Z,99.40
2023-03-27T11:16:58.239Z,98.91
2023-03-27T11:19:51.405Z,99.48
2023-03-27T11:22:32.352Z,98.94
2023-03-27T11:25:07.738Z,99.50
2023-03-27T11:27:43.174Z,99.04
2023-03-27T11:30:29.972Z,98.43
2023-03-27T11:33:10.473Z,98.29
2023-03-27T11:35:43.164Z,98.35
2023-03-27T11:38:35.077Z,98.92
2023-03-27T11:41:04.824Z,98.76
2023-03-27T11:43:37.600Z,98.61
2023-03-27T11:46:19.413Z,97.75
2023-03-27T11:49:04.444Z,98.52
2023-03-27T11:51:45.627Z,98.11
2023-03-27T11:54:29.467Z,97.81
2023-03-27T11:57:07.227Z,97.17
2023-03-27T12:00:18.052Z,96.49
2023-03-27T12:03:22.075Z,95.61
2023-03-27T12:06:02.175Z,96.63
2023-03-27T12:08:50.014Z,96.05
2023-03-27T12:11:22.212Z,96.21
2023-03-27T12:14:40.142Z,96.03
2023-03-27T12:17:22.641Z,95.05
2023-03-27T12:20:43.633Z,94.65
2023-03-27T12:23:30.938Z,94.73
2023-03-27T12:26:56.520Z,93.71
2023-03-27T12:29:52.047Z,91.55
2023-03-27T12:32:36.019Z,92.31
2023-03-27T12:35:11.602Z,92.47
2023-03-27T12:37:48.727Z,92.60
2023-03-27T12:40:30.003Z,93.13
2023-03-27T12:43:12.173Z,93.33
2023-03-27T12:45:53.249Z,92.54
2023-03-27T12:48:23.809Z,92.06
2023-03-27T12:50:58.208Z,91.12
2023-03-27T12:53:48.243Z,90.54
2023-03-27T12:56:27.404Z,88.49
2023-03-27T12:58:57.770Z,86.62
2023-03-27T13:02:14.604Z,86.12
2023-03-27T13:05:24.124Z,84.26
2023-03-27T13:08:10.317Z,82.85
2023-03-27T13:11:03.462Z,82.13
2023-03-27T13:13:59.581Z,80.80
2023-03-27T13:16:49.093Z,79.17
2023-03-27T13:19:31.962Z,79.50
2023-03-27T13:22:29.075Z,78.53
2023-03-27T13:25:18.666Z,79.13
2023-03-27T13:28:03.593Z,79.14
2023-03-27T13:30:45.583Z,78.71
2023-03-27T13:33:43.699Z,78.79
2023-03-27T13:36:19.988Z,78.68
2023-03-27T13:39:21.247Z,78.32
2023-03-27T13:42:12.784Z,78.48
2023-03-27T13:44:58.349Z,78.41
2023-03-27T13:47:53.037Z,77.21
2023-03-27T13:50:52.142Z,76.75
2023-03-27T13:53:33.261Z,76.76
2023-03-27T13:56:35.438Z,75.89
2023-03-27T13:59:52.861Z,75.29
2023-03-27T14:03:08.063Z,75.06
2023-03-27T14:06:06.672Z,75.29
2023-03-27T14:08:48.159Z,75.19
2023-03-27T14:12:01.505Z,75.30
2023-03-27T14:15:34.012Z,76.04
2023-03-27T14:18:55.929Z,75.78
2023-03-27T14:21:37.879Z,75.40
2023-03-27T14:24:23.278Z,73.90
2023-03-27T14:26:57.849Z,73.63
2023-03-27T14:29:26.831Z,73.71
2023-03-27T14:32:03.622Z,74.16
2023-03-27T14:34:47.377Z,72.86
2023-03-27T14:37:42.066Z,73.26
2023-03-27T14:40:32.844Z,73.77
2023-03-27T14:43:08.058Z,73.17
2023-03-27T14:45:40.308Z,71.54
2023-03-27T14:48:21.128Z,72.19
2023-03-27T14:50:53.994Z,70.86
2023-03-27T14:53:27.719Z,70.91
2023-03-27T14:56:29.575Z,71.12
2023-03-27T14:59:22.366Z,70.81
2023-03-27T15:01:58.181Z,69.35
2023-03-27T15:04:27.621Z,69.31
2023-03-27T15:07:13.245Z,69.67
2023-03-27T15:10:04.219Z,69.76
2023-03-27T15:12:51.610Z,67.81
2023-03-27T15:15:26.511Z,68.70
2023-03-27T15:17:56.136Z,66.13
2023-03-27T15:20:28.142Z,67.01
2023-03-27T15:23:02.910Z,66.09
2023-03-27T15:25:39.421Z,66.00
2023-03-27T15:28:11.582Z,66.57
2023-03-27T15:30:46.224Z,65.53
2023-03-27T15:33:22.038Z,66.08
2023-03-27T15:35:54.376Z,64.98
2023-03-27T15:38:29.960Z,65.47
2023-03-27T15:41:23.110Z,64.45
2023-03-27T15:43:53.189Z,65.18
2023-03-27T15:46:26.580Z,66.63
2023-03-27T15:48:56.566Z,64.85
2023-03-27T15:51:31.796Z,64.86
2023-03-27T15:54:00.232Z,65.25
2023-03-27T15:56:38.169Z,65.32
2023-03-27T15:59:08.347Z,64.98
2023-03-27T16:01:39.678Z,64.66
2023-03-27T16:04:09.972Z,65.54
2023-03-27T16:06:41.051Z,64.84
2023-03-27T16:09:23.354Z,64.14
2023-03-27T16:11:52.995Z,62.95
2023-03-27T16:14:27.907Z,63.22
2023-03-27T16:17:11.448Z,64.18
2023-03-27T16:19:44.138Z,63.48
2023-03-27T16:22:13.295Z,63.11
2023-03-27T16:24:41.501Z,62.11
2023-03-27T16:27:11.388Z,62.17
2023-03-27T16:29:39.433Z,62.77
2023-03-27T16:32:12.328Z,63.32
2023-03-27T16:34:40.730Z,62.95
2023-03-27T16:37:09.028Z,61.34
2023-03-27T16:39:37.841Z,61.70
2023-03-27T16:42:06.108Z,62.50
2023-03-27T16:44:34.223Z,62.19
2023-03-27T16:47:02.581Z,60.46
2023-03-27T16:49:32.059Z,60.77
2023-03-27T16:52:00.148Z,61.87
2023-03-27T16:54:28.232Z,62.12
2023-03-27T16:56:56.296Z,61.93
2023-03-27T16:59:32.026Z,60.28
2023-03-27T17:02:07.969Z,60.94
2023-03-27T17:04:38.214Z,62.80
2023-03-27T17:07:07.272Z,63.41
2023-03-27T17:09:35.494Z,64.46
2023-03-27T17:12:04.252Z,62.96
2023-03-27T17:14:32.364Z,62.98
2023-03-27T17:17:00.457Z,62.14
2023-03-27T17:19:28.536Z,62.68
2023-03-27T17:21:58.053Z,61.42
2023-03-27T17:24:26.162Z,61.61
2023-03-27T17:26:55.602Z,61.99
2023-03-27T17:29:24.010Z,61.12
2023-03-27T17:31:52.557Z,60.37
2023-03-27T17:34:20.727Z,60.14
2023-03-27T17:36:54.221Z,60.13
2023-03-27T17:39:26.985Z,59.21
2023-03-27T17:41:55.373Z,59.51
2023-03-27T17:44:23.564Z,58.45
2023-03-27T17:46:51.919Z,58.02
2023-03-27T17:49:20.114Z,58.45
2023-03-27T17:51:48.176Z,57.79
2023-03-27T17:54:16.579Z,57.75
2023-03-27T17:56:46.654Z,57.63
2023-03-27T17:59:15.429Z,57.63
2023-03-27T18:01:46.052Z,57.54
2023-03-27T18:04:15.445Z,55.80
2023-03-27T18:06:43.497Z,56.33
2023-03-27T18:09:11.527Z,56.81
2023-03-27T18:11:44.612Z,57.60
2023-03-27T18:14:18.155Z,56.71
2023-03-27T18:16:46.341Z,55.76
2023-03-27T18:19:14.694Z,56.16
2023-03-27T18:21:43.170Z,57.16
2023-03-27T18:24:11.421Z,57.10
2023-03-27T18:26:39.516Z,55.94
2023-03-27T18:29:07.581Z,56.63
2023-03-27T18:31:37.187Z,56.80
2023-03-27T18:34:05.251Z,56.61
2023-03-27T18:36:33.397Z,55.58
2023-03-27T18:39:01.431Z,56.83
2023-03-27T18:41:29.612Z,56.55
2023-03-27T18:43:57.659Z,55.71
2023-03-27T18:46:25.927Z,56.28
2023-03-27T18:48:57.096Z,55.70
2023-03-27T18:51:25.424Z,55.94
2023-03-27T18:53:53.585Z,54.92
2023-03-27T18:56:21.674Z,55.93
2023-03-27T18:58:49.793Z,55.98
2023-03-27T19:01:18.456Z,56.61
2023-03-27T19:03:46.571Z,55.93
2023-03-27T19:06:16.052Z,55.54
2023-03-27T19:08:45.465Z,54.75
2023-03-27T19:11:13.631Z,55.07
2023-03-27T19:14:00.470Z,55.79
2023-03-27T19:16:36.716Z,54.68
2023-03-27T19:19:24.105Z,54.89
2023-03-27T19:21:56.440Z,56.39
2023-03-27T19:24:40.750Z,56.35
2023-03-27T19:27:23.007Z,55.95
2023-03-27T19:29:53.102Z,56.32
2023-03-27T19:32:21.355Z,56.67
2023-03-27T19:34:49.457Z,57.14
2023-03-27T19:37:18.867Z,57.78
2023-03-27T19:39:47.176Z,56.54
2023-03-27T19:42:15.906Z,58.73
2023-03-27T19:44:44.057Z,59.37
2023-03-27T19:47:12.299Z,58.25
2023-03-27T19:49:41.229Z,59.29
2023-03-27T19:52:22.859Z,59.47
2023-03-27T19:54:51.071Z,59.38
2023-03-27T19:57:19.257Z,60.54
2023-03-27T19:59:47.407Z,60.51
2023-03-27T20:02:16.032Z,60.22
2023-03-27T20:04:44.328Z,60.96
2023-03-27T20:07:12.881Z,60.63
2023-03-27T20:09:42.328Z,62.24
2023-03-27T20:12:11.400Z,62.60
2023-03-27T20:14:39.508Z,62.01
2023-03-27T20:17:12.207Z,62.84
2023-03-27T20:19:48.867Z,63.83
2023-03-27T20:22:20.740Z,63.96
2023-03-27T20:24:50.612Z,62.88
2023-03-27T20:27:20.140Z,63.70
2023-03-27T20:29:48.291Z,64.60
2023-03-27T20:32:16.454Z,64.30
2023-03-27T20:34:46.380Z,63.41
2023-03-27T20:37:15.016Z,62.20
2023-03-27T20:40:07.483Z,62.18
2023-03-27T20:42:39.014Z,62.18
2023-03-27T20:45:09.075Z,61.75
2023-03-27T20:47:43.041Z,62.96
2023-03-27T20:50:11.842Z,63.26
2023-03-27T20:52:39.878Z,64.55
2023-03-27T20:55:13.372Z,64.54
2023-03-27T20:57:45.595Z,64.71
2023-03-27T21:00:16.849Z,65.60
2023-03-27T21:02:45.020Z,65.65
2023-03-27T21:05:13.116Z,64.61
2023-03-27T21:07:41.330Z,65.49
2023-03-27T21:10:11.883Z,64.65
2023-03-27T21:12:40.829Z,64.60
2023-03-27T21:15:10.417Z,65.46
2023-03-27T21:17:38.564Z,64.91
2023-03-27T21:20:08.122Z,64.62
2023-03-27T21:22:36.172Z,64.80
2023-03-27T21:25:04.370Z,64.38
2023-03-27T21:27:33.934Z,64.76
2023-03-27T21:30:02.127Z,64.27
2023-03-27T21:32:30.349Z,64.42
2023-03-27T21:34:58.559Z,64.38
2023-03-27T21:37:26.621Z,64.71
2023-03-27T21:39:54.725Z,64.45
2023-03-27T21:42:22.882Z,65.16
2023-03-27T21:44:55.609Z,65.10
2023-03-27T21:47:34.461Z,65.26
2023-03-27T21:50:10.427Z,65.47
2023-03-27T21:52:38.576Z,64.33
2023-03-27T21:55:06.932Z,65.23
2023-03-27T21:57:35.013Z,64.88
2023-03-27T22:00:05.664Z,65.76
2023-03-27T22:02:41.183Z,65.41
2023-03-27T22:05:09.593Z,65.65
2023-03-27T22:07:37.883Z,66.72
2023-03-27T22:10:07.348Z,65.90
2023-03-27T22:12:36.500Z,65.26
2023-03-27T22:15:08.042Z,66.02
2023-03-27T22:17:37.522Z,65.54
2023-03-27T22:20:06.600Z,66.59
2023-03-27T22:22:35.098Z,66.60
2023-03-27T22:25:03.528Z,67.79
2023-03-27T22:27:32.028Z,67.52
2023-03-27T22:30:00.368Z,66.34
2023-03-27T22:32:29.927Z,68.02
2023-03-27T22:34:58.171Z,67.73
2023-03-27T22:37:26.291Z,67.09
2023-03-27T22:39:54.342Z,66.65
2023-03-27T22:42:22.409Z,67.44
2023-03-27T22:44:50.501Z,66.53
2023-03-27T22:47:18.536Z,67.75
2023-03-27T22:49:47.966Z,67.47
2023-03-27T22:52:16.799Z,67.72
2023-03-27T22:54:44.872Z,67.76
2023-03-27T22:57:12.989Z,68.35
2023-03-27T22:59:41.362Z,68.08
2023-03-27T23:02:09.654Z,68.62
2023-03-27T23:04:37.802Z,68.98
2023-03-27T23:07:07.370Z,68.20
2023-03-27T23:09:35.585Z,67.96
2023-03-27T23:12:03.696Z,69.49
2023-03-27T23:14:31.966Z,68.84
2023-03-27T23:17:00.628Z,69.83
2023-03-27T23:19:28.740Z,69.76
2023-03-27T23:21:56.824Z,68.74
2023-03-27T23:24:26.380Z,69.22
2023-03-27T23:26:54.466Z,69.24
2023-03-27T23:29:22.754Z,69.37
2023-03-27T23:31:50.862Z,69.41
2023-03-27T23:34:18.974Z,69.59
2023-03-27T23:36:47.117Z,69.35
2023-03-27T23:39:15.504Z,69.82
2023-03-27T23:41:44.902Z,67.86
2023-03-27T23:44:13.073Z,68.29
2023-03-27T23:46:41.486Z,68.43
2023-03-27T23:49:09.589Z,68.50
2023-03-27T23:51:37.622Z,69.51
2023-03-27T23:54:05.964Z,68.51
2023-03-27T23:56:34.009Z,68.31
2023-03-27T23:59:03.511Z,68.70
